createdAt,value
2017-04-14T12:35:07.281Z,43.46
2017-04-14T12:37:19.965Z,42.82
2017-04-14T12:38:20.368Z,42.91
2017-04-14T12:39:20.437Z,43.15
2017-04-14T12:40:20.551Z,43.13
2017-04-14T12:41:20.643Z,43.58
2017-04-14T12:42:20.722Z,43.47
2017-04-14T12:43:20.942Z,43.13
2017-04-14T12:44:21.421Z,43.31
2017-04-14T12:45:21.624Z,43.69
2017-04-14T12:46:22.107Z,43.47
2017-04-14T12:47:22.301Z,43.61
2017-04-14T12:48:22.337Z,43.65
2017-04-14T12:49:22.376Z,43.79
2017-04-14T12:50:23.120Z,43.96
2017-04-14T12:51:23.267Z,43.94
2017-04-14T12:52:23.375Z,43.98
2017-04-14T12:53:23.983Z,43.95
2017-04-14T12:54:25.651Z,43.72
2017-04-14T12:55:25.758Z,43.90
2017-04-14T12:56:25.906Z,43.78
2017-04-14T12:57:26.441Z,43.71
2017-04-14T12:58:26.495Z,43.94
2017-04-14T12:59:26.553Z,44.21
2017-04-14T13:00:26.609Z,44.37
2017-04-14T13:01:26.717Z,44.02
2017-04-14T13:02:26.784Z,43.66
2017-04-14T13:03:26.832Z,44.01
2017-04-14T13:04:26.936Z,43.92
2017-04-14T13:05:26.988Z,44.28
2017-04-14T13:06:27.134Z,43.48
2017-04-14T13:07:27.265Z,43.20
2017-04-14T13:08:27.327Z,43.53
2017-04-14T13:09:28.095Z,42.35
2017-04-14T13:10:28.244Z,42.13
2017-04-14T13:11:28.538Z,42.02
2017-04-14T13:15:10.872Z,42.15
2017-04-14T13:16:16.889Z,42.09
2017-04-14T13:17:22.698Z,41.54
2017-04-14T13:18:28.743Z,42.00
2017-04-14T13:19:35.522Z,41.85
2017-04-14T13:20:41.066Z,42.19
2017-04-14T13:21:46.832Z,42.42
2017-04-14T13:22:53.582Z,41.83
2017-04-14T13:23:59.147Z,42.27
2017-04-14T13:25:04.512Z,42.42
2017-04-14T13:26:09.747Z,42.60
2017-04-14T13:27:14.760Z,42.80
2017-04-14T13:28:17.582Z,42.56
2017-04-14T13:29:24.568Z,42.79
2017-04-14T13:30:29.774Z,42.58
2017-04-14T13:31:30.772Z,42.68
2017-04-14T13:32:36.502Z,42.85
2017-04-14T13:33:43.315Z,42.47
2017-04-14T13:34:46.475Z,42.94
2017-04-14T13:35:53.405Z,42.91
2017-04-14T13:36:59.998Z,42.94
2017-04-14T13:38:08.804Z,42.98
2017-04-14T13:39:10.833Z,43.35
2017-04-14T13:40:12.857Z,43.22
2017-04-14T13:41:15.256Z,43.17
2017-04-14T13:42:22.939Z,42.51
2017-04-14T13:43:27.412Z,43.07
2017-04-14T13:44:28.547Z,42.75
2017-04-14T13:45:30.271Z,43.29
2017-04-14T13:46:31.687Z,43.08
2017-04-14T13:47:33.337Z,43.10
2017-04-14T13:48:34.749Z,43.03
2017-04-14T13:49:36.185Z,43.23
2017-04-14T13:50:37.449Z,43.50
2017-04-14T13:51:38.721Z,43.56
2017-04-14T13:52:39.721Z,42.98
2017-04-14T13:53:40.985Z,42.96
2017-04-14T13:54:42.263Z,43.28
2017-04-14T13:55:43.618Z,43.21
2017-04-14T13:56:45.145Z,43.54
2017-04-14T13:57:46.581Z,44.12
2017-04-14T13:58:47.817Z,43.79
2017-04-14T13:59:49.172Z,44.05
2017-04-14T14:00:50.708Z,44.09
2017-04-14T14:01:52.261Z,44.09
2017-04-14T14:02:53.417Z,44.34
2017-04-14T14:03:54.536Z,44.39
2017-04-14T14:04:56.198Z,44.31
2017-04-14T14:05:57.313Z,44.45
2017-04-14T14:06:58.463Z,44.57
2017-04-14T14:07:59.405Z,44.76
2017-04-14T14:09:00.707Z,44.85
2017-04-14T14:10:01.848Z,44.88
2017-04-14T14:11:02.997Z,44.94
2017-04-14T14:12:04.161Z,45.13
2017-04-14T14:13:05.305Z,44.93
2017-04-14T14:14:06.849Z,45.08
2017-04-14T14:15:08.362Z,45.11
2017-04-14T14:16:09.332Z,44.97
2017-04-14T14:17:10.589Z,45.05
2017-04-14T14:18:12.837Z,45.01
2017-04-14T14:19:14.534Z,44.96
2017-04-14T14:20:15.763Z,44.84
2017-04-14T14:21:16.907Z,44.46
2017-04-14T14:22:19.889Z,44.73
2017-04-14T14:23:23.187Z,44.65
2017-04-14T14:24:26.435Z,44.51
2017-04-14T14:25:30.493Z,44.73
2017-04-14T14:26:34.122Z,44.57
2017-04-14T14:27:37.498Z,44.79
2017-04-14T14:28:41.284Z,44.98
2017-04-14T14:29:44.657Z,44.53
2017-04-14T14:30:47.986Z,44.90
2017-04-14T14:31:51.222Z,44.99
2017-04-14T14:32:54.653Z,45.07
2017-04-14T14:33:58.121Z,45.14
2017-04-14T14:35:00.413Z,45.34
2017-04-14T14:36:02.122Z,45.24
2017-04-14T14:37:03.055Z,45.13
2017-04-14T14:38:04.199Z,45.15
2017-04-14T14:39:05.746Z,44.83
2017-04-14T14:40:06.816Z,44.74
2017-04-14T14:41:08.005Z,44.60
2017-04-14T14:42:09.158Z,44.54
2017-04-14T14:43:10.423Z,44.45
2017-04-14T14:44:12.297Z,44.70
2017-04-14T14:45:13.755Z,44.78
2017-04-14T14:46:15.258Z,44.92
2017-04-14T14:47:16.689Z,44.87
2017-04-14T14:48:17.966Z,44.66
2017-04-14T14:49:19.345Z,44.77
2017-04-14T14:50:20.657Z,44.88
2017-04-14T14:51:22.096Z,44.87
2017-04-14T14:52:23.222Z,45.18
2017-04-14T14:53:24.334Z,45.06
2017-04-14T14:54:25.433Z,45.27
2017-04-14T14:55:26.737Z,45.40
2017-04-14T14:56:28.170Z,45.60
2017-04-14T14:57:29.293Z,45.68
2017-04-14T14:58:30.505Z,45.28
2017-04-14T14:59:31.786Z,45.30
2017-04-14T15:00:33.433Z,44.55
2017-04-14T15:01:34.608Z,44.39
2017-04-14T15:02:35.805Z,43.94
2017-04-14T15:03:36.917Z,43.99
2017-04-14T15:04:38.096Z,43.83
2017-04-14T15:05:39.240Z,43.78
2017-04-14T15:06:40.240Z,43.97
2017-04-14T15:07:41.361Z,44.14
2017-04-14T15:08:42.498Z,44.40
2017-04-14T15:09:43.629Z,44.40
2017-04-14T15:10:44.779Z,44.85
2017-04-14T15:11:45.915Z,44.64
2017-04-14T15:12:47.099Z,44.00
2017-04-14T15:13:48.474Z,43.97
2017-04-14T15:14:49.781Z,43.26
2017-04-14T15:15:53.883Z,43.30
2017-04-14T15:16:55.045Z,43.59
2017-04-14T15:17:56.252Z,43.91
2017-04-14T15:18:57.377Z,43.86
2017-04-14T15:19:59.966Z,43.71
2017-04-14T15:21:02.159Z,43.43
2017-04-14T15:22:03.669Z,43.47
2017-04-14T15:23:06.400Z,43.16
2017-04-14T15:24:13.317Z,43.41
2017-04-14T15:25:34.919Z,43.58
2017-04-14T15:26:41.877Z,43.47
2017-04-14T15:27:50.009Z,43.49
2017-04-14T15:29:00.256Z,43.49
2017-04-14T15:30:06.929Z,43.30
2017-04-14T15:31:09.675Z,43.29
2017-04-14T15:32:13.256Z,43.39
2017-04-14T15:33:16.859Z,43.46
2017-04-14T15:34:21.562Z,43.78
2017-04-14T15:35:32.369Z,43.58
2017-04-14T15:36:42.251Z,43.63
2017-04-14T15:37:49.322Z,43.30
2017-04-14T15:39:05.176Z,43.90
2017-04-14T15:40:14.908Z,43.97
2017-04-14T15:41:23.087Z,43.87
2017-04-14T15:42:30.480Z,43.87
2017-04-14T15:43:43.112Z,43.89
2017-04-14T15:44:54.553Z,43.90
2017-04-14T15:46:07.938Z,43.73
2017-04-14T15:47:16.039Z,43.78
2017-04-14T15:48:29.360Z,43.81
2017-04-14T15:49:39.236Z,43.50
2017-04-14T15:50:50.831Z,43.76
2017-04-14T15:51:57.579Z,43.98
2017-04-14T15:53:05.530Z,44.03
2017-04-14T15:54:18.185Z,43.90
2017-04-14T15:55:30.261Z,44.02
2017-04-14T15:56:39.912Z,43.68
2017-04-14T15:57:53.912Z,43.74
2017-04-14T15:59:02.335Z,44.00
2017-04-14T16:00:16.597Z,44.29
2017-04-14T16:01:23.036Z,44.25
2017-04-14T16:02:27.170Z,44.00
2017-04-14T16:03:37.908Z,43.78
2017-04-14T16:04:51.318Z,44.14
2017-04-14T16:05:55.522Z,44.18
2017-04-14T16:06:58.493Z,44.26
2017-04-14T16:08:00.369Z,44.31
2017-04-14T16:09:03.555Z,44.25
2017-04-14T16:10:05.139Z,44.24
2017-04-14T16:11:10.015Z,44.37
2017-04-14T16:12:12.934Z,44.37
2017-04-14T16:13:26.901Z,44.68
2017-04-14T16:14:37.476Z,44.69
2017-04-14T16:15:43.589Z,44.51
2017-04-14T16:16:52.032Z,44.72
2017-04-14T16:18:00.160Z,44.73
2017-04-14T16:19:06.209Z,44.90
2017-04-14T16:20:18.477Z,44.76
2017-04-14T16:21:26.603Z,44.59
2017-04-14T16:22:38.419Z,44.64
2017-04-14T16:23:45.401Z,44.71
2017-04-14T16:24:52.004Z,44.71
2017-04-14T16:25:58.931Z,44.65
2017-04-14T16:27:05.216Z,44.79
2017-04-14T16:28:12.289Z,45.00
2017-04-14T16:29:22.348Z,45.38
2017-04-14T16:30:29.493Z,45.41
2017-04-14T16:31:37.252Z,45.48
2017-04-14T16:32:45.431Z,45.72
2017-04-14T16:33:51.224Z,46.02
2017-04-14T16:34:58.717Z,45.98
2017-04-14T16:36:04.421Z,45.95
2017-04-14T16:37:11.017Z,46.21
2017-04-14T16:38:13.467Z,45.90
2017-04-14T16:39:15.135Z,45.90
2017-04-14T16:40:16.725Z,45.91
2017-04-14T16:41:19.343Z,46.27
2017-04-14T16:42:21.519Z,45.95
2017-04-14T16:43:24.296Z,46.24
2017-04-14T16:44:27.182Z,46.40
2017-04-14T16:45:29.849Z,46.51
2017-04-14T16:46:32.117Z,46.62
2017-04-14T16:47:39.469Z,46.53
2017-04-14T16:48:42.309Z,46.77
2017-04-14T16:49:54.666Z,46.64
2017-04-14T16:51:03.756Z,46.76
2017-04-14T16:52:12.799Z,46.88
2017-04-14T16:53:18.911Z,46.99
2017-04-14T16:54:30.878Z,47.06
2017-04-14T16:55:45.065Z,46.94
2017-04-14T16:56:54.102Z,46.98
2017-04-14T16:58:10.304Z,47.09
2017-04-14T16:59:15.076Z,47.19
2017-04-14T17:00:25.118Z,47.25
2017-04-14T17:01:33.071Z,47.36
2017-04-14T17:02:47.518Z,47.63
2017-04-14T17:03:58.842Z,48.07
2017-04-14T17:05:12.293Z,48.14
2017-04-14T17:06:23.217Z,48.10
2017-04-14T17:07:35.281Z,48.44
2017-04-14T17:08:44.515Z,48.50
2017-04-14T17:09:52.693Z,48.19
2017-04-14T17:11:02.676Z,48.32
2017-04-14T17:12:12.330Z,48.33
2017-04-14T17:13:19.731Z,48.22
2017-04-14T17:14:26.017Z,48.40
2017-04-14T17:15:41.290Z,48.51
2017-04-14T17:16:48.966Z,48.67
2017-04-14T17:18:04.078Z,48.60
2017-04-14T17:19:13.157Z,48.87
2017-04-14T17:20:21.437Z,48.94
2017-04-14T17:21:30.219Z,49.07
2017-04-14T17:22:37.046Z,48.93
2017-04-14T17:23:41.035Z,48.96
2017-04-14T17:24:43.165Z,48.77
2017-04-14T17:25:46.398Z,48.85
2017-04-14T17:26:49.414Z,49.14
2017-04-14T17:27:53.599Z,49.31
2017-04-14T17:28:59.322Z,49.07
2017-04-14T17:30:06.162Z,49.28
2017-04-14T17:31:10.038Z,49.36
2017-04-14T17:32:12.844Z,49.32
2017-04-14T17:33:14.465Z,49.14
2017-04-14T17:34:15.848Z,49.05
2017-04-14T17:35:16.971Z,49.04
2017-04-14T17:36:18.173Z,48.92
2017-04-14T17:37:19.301Z,49.14
2017-04-14T17:38:20.422Z,48.93
2017-04-14T17:39:21.609Z,49.05
2017-04-14T17:40:22.924Z,49.09
2017-04-14T17:41:23.899Z,49.17
2017-04-14T17:42:25.069Z,49.44
2017-04-14T17:43:26.436Z,49.51
2017-04-14T17:44:27.776Z,49.49
2017-04-14T17:45:28.875Z,49.45
2017-04-14T17:46:30.068Z,49.55
2017-04-14T17:47:31.258Z,49.65
2017-04-14T17:48:33.103Z,49.79
2017-04-14T17:49:35.297Z,49.70
2017-04-14T17:50:37.579Z,49.74
2017-04-14T17:51:38.821Z,49.73
2017-04-14T17:52:40.095Z,49.70
2017-04-14T17:53:41.307Z,49.94
2017-04-14T17:54:42.505Z,49.73
2017-04-14T17:55:43.966Z,49.74
2017-04-14T17:56:45.893Z,49.83
2017-04-14T17:57:47.060Z,50.06
2017-04-14T17:58:48.343Z,50.02
2017-04-14T17:59:49.631Z,50.35
2017-04-14T18:00:50.836Z,50.46
2017-04-14T18:01:52.311Z,50.48
2017-04-14T18:02:53.821Z,50.38
2017-04-14T18:03:56.554Z,50.12
2017-04-14T18:04:57.544Z,50.18
2017-04-14T18:05:59.026Z,50.54
2017-04-14T18:07:05.932Z,50.68
2017-04-14T18:08:09.021Z,50.89
2017-04-14T18:09:10.118Z,50.88
2017-04-14T18:10:11.301Z,50.94
2017-04-14T18:11:12.782Z,51.02
2017-04-14T18:12:13.978Z,51.02
2017-04-14T18:13:24.345Z,51.13
2017-04-14T18:14:28.111Z,51.14
2017-04-14T18:15:30.432Z,51.22
2017-04-14T18:16:36.029Z,51.41
2017-04-14T18:17:38.098Z,51.30
2017-04-14T18:18:40.825Z,51.39
2017-04-14T18:19:43.227Z,51.57
2017-04-14T18:20:47.191Z,51.70
2017-04-14T18:21:49.143Z,51.77
2017-04-14T18:22:53.011Z,51.79
2017-04-14T18:24:00.637Z,51.79
2017-04-14T18:25:05.946Z,51.81
2017-04-14T18:26:08.838Z,51.81
2017-04-14T18:27:10.118Z,51.84
2017-04-14T18:28:12.831Z,52.07
2017-04-14T18:29:14.085Z,52.05
2017-04-14T18:30:15.230Z,51.99
2017-04-14T18:31:16.186Z,52.18
2017-04-14T18:32:17.335Z,52.16
2017-04-14T18:33:18.464Z,52.27
2017-04-14T18:34:19.408Z,52.44
2017-04-14T18:35:20.492Z,52.37
2017-04-14T18:36:21.567Z,52.29
2017-04-14T18:37:22.745Z,52.42
2017-04-14T18:38:24.058Z,52.52
2017-04-14T18:39:25.007Z,52.50
2017-04-14T18:40:26.348Z,52.53
2017-04-14T18:41:27.537Z,52.55
2017-04-14T18:42:28.764Z,52.54
2017-04-14T18:43:29.910Z,52.59
2017-04-14T18:44:31.231Z,52.71
2017-04-14T18:45:32.709Z,52.47
2017-04-14T18:46:34.053Z,52.75
2017-04-14T18:47:35.849Z,52.67
2017-04-14T18:48:37.074Z,52.77
2017-04-14T18:49:38.188Z,52.72
2017-04-14T18:50:39.733Z,52.61
2017-04-14T18:51:41.092Z,52.68
2017-04-14T18:52:42.465Z,52.95
2017-04-14T18:53:43.985Z,53.26
2017-04-14T18:54:45.241Z,53.54
2017-04-14T18:55:46.736Z,53.53
2017-04-14T18:56:47.988Z,53.61
2017-04-14T18:57:49.286Z,53.84
2017-04-14T18:58:50.792Z,53.79
2017-04-14T18:59:51.803Z,53.76
2017-04-14T19:00:53.555Z,53.96
2017-04-14T19:01:54.777Z,53.82
2017-04-14T19:02:57.089Z,53.72
2017-04-14T19:03:58.057Z,53.97
2017-04-14T19:04:59.720Z,53.97
2017-04-14T19:06:01.208Z,53.79
2017-04-14T19:07:02.856Z,53.85
2017-04-14T19:08:04.067Z,53.83
2017-04-14T19:09:06.197Z,53.86
2017-04-14T19:10:14.545Z,53.95
2017-04-14T19:11:17.550Z,54.00
2017-04-14T19:12:21.586Z,54.22
2017-04-14T19:13:24.526Z,54.33
2017-04-14T19:14:27.098Z,54.51
2017-04-14T19:15:32.196Z,54.57
2017-04-14T19:16:36.296Z,54.58
2017-04-14T19:17:40.247Z,54.47
2017-04-14T19:18:44.979Z,54.44
2017-04-14T19:19:48.856Z,54.64
2017-04-14T19:20:54.712Z,54.74
2017-04-14T19:21:58.837Z,54.61
2017-04-14T19:23:05.166Z,54.46
2017-04-14T19:24:15.093Z,54.42
2017-04-14T19:25:19.652Z,54.31
2017-04-14T19:26:24.528Z,54.49
2017-04-14T19:27:32.570Z,54.38
2017-04-14T19:28:36.886Z,54.63
2017-04-14T19:29:40.973Z,54.71
2017-04-14T19:30:45.920Z,54.47
2017-04-14T19:31:55.191Z,54.71
2017-04-14T19:33:10.921Z,54.64
2017-04-14T19:34:12.176Z,54.67
2017-04-14T19:35:18.128Z,54.95
2017-04-14T19:36:22.462Z,55.06
2017-04-14T19:37:25.229Z,55.14
2017-04-14T19:38:27.659Z,55.12
2017-04-14T19:39:30.813Z,55.14
2017-04-14T19:40:34.962Z,55.25
2017-04-14T19:41:38.551Z,55.21
2017-04-14T19:42:41.086Z,55.44
2017-04-14T19:43:47.813Z,55.75
2017-04-14T19:44:54.029Z,55.71
2017-04-14T19:46:05.206Z,55.67
2017-04-14T19:47:09.450Z,55.55
2017-04-14T19:48:11.738Z,55.48
2017-04-14T19:49:15.123Z,55.42
2017-04-14T19:50:20.501Z,55.63
2017-04-14T19:51:26.024Z,55.98
2017-04-14T19:52:32.888Z,56.16
2017-04-14T19:53:35.998Z,55.78
2017-04-14T19:54:41.332Z,55.85
2017-04-14T19:55:46.234Z,55.93
2017-04-14T19:56:51.352Z,55.96
2017-04-14T19:57:55.193Z,56.11
2017-04-14T19:59:02.929Z,56.31
2017-04-14T20:00:07.549Z,56.35
2017-04-14T20:01:10.762Z,56.59
2017-04-14T20:02:15.396Z,56.45
2017-04-14T20:03:21.005Z,56.39
2017-04-14T20:04:23.352Z,56.49
2017-04-14T20:05:28.269Z,56.58
2017-04-14T20:06:33.519Z,56.82
2017-04-14T20:07:36.663Z,56.91
2017-04-14T20:08:38.999Z,57.01
2017-04-14T20:09:42.392Z,57.03
2017-04-14T20:10:45.118Z,57.32
2017-04-14T20:11:49.592Z,57.20
2017-04-14T20:12:52.514Z,57.49
2017-04-14T20:13:58.427Z,57.46
2017-04-14T20:15:02.450Z,57.48
2017-04-14T20:16:04.992Z,57.45
2017-04-14T20:17:08.047Z,57.30
2017-04-14T20:18:10.085Z,57.47
2017-04-14T20:19:14.244Z,57.68
2017-04-14T20:20:21.137Z,58.13
2017-04-14T20:21:26.875Z,58.22
2017-04-14T20:22:34.410Z,58.56
2017-04-14T20:23:50.905Z,58.43
2017-04-14T20:24:57.780Z,58.32
2017-04-14T20:26:04.584Z,58.36
2017-04-14T20:27:10.802Z,58.76
2017-04-14T20:28:16.225Z,59.01
2017-04-14T20:29:21.785Z,59.44
2017-04-14T20:30:27.587Z,59.52
2017-04-14T20:31:35.073Z,59.48
2017-04-14T20:32:40.617Z,59.76
2017-04-14T20:33:44.875Z,59.71
2017-04-14T20:34:51.783Z,59.44
2017-04-14T20:36:05.276Z,59.15
2017-04-14T20:37:13.773Z,59.27
2017-04-14T20:38:21.036Z,59.44
2017-04-14T20:39:26.345Z,59.48
2017-04-14T20:40:28.959Z,59.65
2017-04-14T20:41:31.043Z,59.70
2017-04-14T20:42:33.670Z,59.76
2017-04-14T20:43:36.151Z,59.81
2017-04-14T20:44:41.060Z,59.88
2017-04-14T20:45:46.181Z,60.30
2017-04-14T20:46:52.441Z,60.12
2017-04-14T20:47:54.524Z,60.54
2017-04-14T20:48:58.629Z,61.01
2017-04-14T20:50:02.159Z,61.13
2017-04-14T20:51:06.421Z,62.32
2017-04-14T20:52:09.634Z,62.69
2017-04-14T20:53:12.413Z,62.85
2017-04-14T20:54:14.127Z,62.68
2017-04-14T20:55:16.892Z,62.41
2017-04-14T20:56:20.946Z,62.23
2017-04-14T20:57:25.028Z,62.42
2017-04-14T20:58:31.124Z,62.52
2017-04-14T20:59:51.068Z,62.42
2017-04-14T21:00:57.254Z,62.82
2017-04-14T21:02:00.774Z,62.92
2017-04-14T21:03:02.169Z,62.93
2017-04-14T21:04:09.170Z,62.98
2017-04-14T21:05:14.232Z,62.80
2017-04-14T21:06:17.947Z,62.67
2017-04-14T21:07:21.316Z,62.56
2017-04-14T21:08:23.982Z,62.50
2017-04-14T21:09:27.559Z,62.43
2017-04-14T21:10:31.050Z,62.40
2017-04-14T21:11:34.531Z,62.75
2017-04-14T21:12:37.348Z,62.98
2017-04-14T21:13:40.426Z,63.25
2017-04-14T21:14:48.197Z,63.48
2017-04-14T21:15:50.065Z,63.28
2017-04-14T21:16:58.650Z,63.42
2017-04-14T21:17:59.906Z,63.63
2017-04-14T21:19:06.026Z,63.96
2017-04-14T21:20:08.936Z,63.94
2017-04-14T21:21:10.081Z,64.04
2017-04-14T21:22:11.300Z,63.97
2017-04-14T21:23:12.323Z,64.36
2017-04-14T21:24:13.965Z,64.51
2017-04-14T21:25:15.414Z,64.57
2017-04-14T21:26:16.748Z,64.60
2017-04-14T21:27:20.917Z,64.43
2017-04-14T21:28:31.296Z,64.68
2017-04-14T21:29:34.456Z,64.50
2017-04-14T21:30:37.585Z,65.21
2017-04-14T21:31:38.653Z,64.90
2017-04-14T21:32:39.894Z,64.95
2017-04-14T21:33:41.102Z,64.68
2017-04-14T21:34:42.283Z,64.39
2017-04-14T21:35:43.437Z,64.26
2017-04-14T21:36:44.610Z,64.06
2017-04-14T21:37:45.845Z,64.38
2017-04-14T21:38:47.015Z,64.43
2017-04-14T21:39:48.227Z,64.39
2017-04-14T21:40:49.545Z,64.55
2017-04-14T21:41:50.902Z,64.91
2017-04-14T21:42:52.131Z,64.76
2017-04-14T21:43:53.274Z,64.41
2017-04-14T21:44:54.547Z,64.02
2017-04-14T21:45:55.715Z,63.56
2017-04-14T21:46:56.756Z,63.35
2017-04-14T21:47:57.930Z,63.05
2017-04-14T21:48:59.254Z,62.81
2017-04-14T21:50:00.726Z,62.96
2017-04-14T21:51:02.075Z,62.95
2017-04-14T21:52:03.247Z,63.37
2017-04-14T21:53:04.481Z,63.62
2017-04-14T21:54:05.656Z,64.20
2017-04-14T21:55:06.971Z,64.08
2017-04-14T21:56:08.305Z,64.25
2017-04-14T21:57:09.319Z,64.12
2017-04-14T21:58:10.598Z,64.31
2017-04-14T21:59:11.752Z,62.99
2017-04-14T22:00:12.968Z,62.89
2017-04-14T22:01:14.683Z,62.89
2017-04-14T22:02:16.121Z,62.87
2017-04-14T22:03:17.279Z,62.81
2017-04-14T22:04:18.610Z,62.84
2017-04-14T22:05:19.764Z,63.05
2017-04-14T22:06:36.301Z,62.92
2017-04-14T22:07:37.423Z,63.08
2017-04-14T22:08:39.006Z,63.25
2017-04-14T22:09:40.298Z,63.13
2017-04-14T22:10:41.478Z,63.03
2017-04-14T22:11:42.425Z,62.67
2017-04-14T22:12:43.360Z,62.44
2017-04-14T22:13:44.343Z,62.44
2017-04-14T22:14:45.573Z,62.51
2017-04-14T22:15:46.706Z,62.45
2017-04-14T22:16:48.178Z,62.48
2017-04-14T22:17:49.312Z,62.89
2017-04-14T22:18:50.521Z,62.72
2017-04-14T22:19:51.794Z,62.35
2017-04-14T22:20:52.979Z,62.26
2017-04-14T22:21:54.077Z,62.40
2017-04-14T22:22:55.038Z,62.32
2017-04-14T22:23:56.267Z,62.32
2017-04-14T22:24:57.511Z,62.70
2017-04-14T22:25:58.652Z,63.01
2017-04-14T22:26:59.768Z,63.44
2017-04-14T22:28:00.948Z,63.40
2017-04-14T22:29:02.068Z,63.85
2017-04-14T22:30:03.311Z,63.77
2017-04-14T22:31:04.319Z,63.17
2017-04-14T22:32:05.329Z,62.86
2017-04-14T22:33:06.254Z,62.89
2017-04-14T22:34:07.385Z,62.78
2017-04-14T22:35:08.608Z,63.25
2017-04-14T22:36:09.649Z,63.49
2017-04-14T22:37:11.107Z,63.57
2017-04-14T22:38:12.078Z,63.43
2017-04-14T22:39:13.547Z,63.41
2017-04-14T22:40:15.140Z,63.39
2017-04-14T22:41:16.584Z,63.60
2017-04-14T22:42:17.840Z,63.67
2017-04-14T22:43:19.415Z,63.06
2017-04-14T22:44:20.730Z,63.48
2017-04-14T22:45:22.058Z,63.42
2017-04-14T22:46:23.176Z,63.12
2017-04-14T22:47:24.678Z,62.99
2017-04-14T22:48:25.792Z,63.03
2017-04-14T22:49:26.928Z,63.01
2017-04-14T22:50:28.159Z,63.46
2017-04-14T22:51:29.394Z,64.10
2017-04-14T22:52:30.540Z,64.37
2017-04-14T22:53:31.668Z,64.10
2017-04-14T22:54:32.808Z,64.43
2017-04-14T22:55:34.224Z,64.57
2017-04-14T22:56:35.719Z,64.18
2017-04-14T22:57:37.285Z,63.68
2017-04-14T22:58:38.561Z,63.34
2017-04-14T22:59:40.054Z,63.21
2017-04-14T23:00:42.154Z,62.78
2017-04-14T23:01:43.580Z,62.75
2017-04-14T23:02:45.031Z,62.61
2017-04-14T23:03:46.988Z,62.03
2017-04-14T23:04:48.112Z,62.19
2017-04-14T23:05:49.552Z,61.91
2017-04-14T23:06:50.956Z,61.96
2017-04-14T23:07:52.179Z,62.21
2017-04-14T23:08:53.526Z,61.91
2017-04-14T23:09:55.084Z,61.77
2017-04-14T23:10:56.844Z,62.08
2017-04-14T23:11:59.234Z,62.17
2017-04-14T23:13:00.407Z,62.33
2017-04-14T23:14:01.448Z,62.90
2017-04-14T23:15:03.072Z,63.31
2017-04-14T23:16:04.390Z,63.53
2017-04-14T23:17:05.559Z,63.33
2017-04-14T23:18:07.079Z,63.10
2017-04-14T23:19:08.230Z,63.12
2017-04-14T23:20:09.620Z,63.10
2017-04-14T23:21:10.684Z,62.92
2017-04-14T23:22:11.831Z,62.92
2017-04-14T23:23:13.487Z,63.07
2017-04-14T23:24:15.179Z,62.79
2017-04-14T23:25:16.394Z,62.92
2017-04-14T23:26:17.634Z,63.38
2017-04-14T23:27:18.795Z,64.00
2017-04-14T23:28:20.345Z,63.87
2017-04-14T23:29:21.540Z,63.08
2017-04-14T23:30:22.993Z,62.92
2017-04-14T23:31:24.148Z,63.01
2017-04-14T23:32:25.308Z,62.94
2017-04-14T23:33:26.557Z,62.64
2017-04-14T23:34:27.750Z,62.14
2017-04-14T23:35:28.825Z,61.91
2017-04-14T23:36:30.038Z,61.75
2017-04-14T23:37:31.210Z,61.68
2017-04-14T23:38:32.257Z,61.66
2017-04-14T23:39:33.481Z,61.66
2017-04-14T23:40:34.513Z,61.90
2017-04-14T23:41:36.045Z,61.97
2017-04-14T23:42:37.864Z,61.86
2017-04-14T23:43:39.481Z,61.80
2017-04-14T23:44:40.482Z,61.62
2017-04-14T23:45:41.698Z,61.57
2017-04-14T23:46:43.255Z,61.65
2017-04-14T23:47:45.087Z,61.87
2017-04-14T23:48:46.661Z,62.02
2017-04-14T23:49:48.661Z,61.99
2017-04-14T23:50:50.012Z,61.80
2017-04-14T23:51:51.361Z,61.95
2017-04-14T23:52:52.565Z,61.73
2017-04-14T23:53:53.725Z,61.66
2017-04-14T23:54:55.275Z,61.81
2017-04-14T23:55:56.730Z,61.88
2017-04-14T23:56:58.633Z,61.93
2017-04-14T23:58:00.037Z,62.48
2017-04-14T23:59:01.184Z,62.74
